Rogue Valley International Medford Airport Medford US
ICAO: KMFR
IATA: MFR
Category: Medium
Scheduled Services: Yes

Elevation: 1335 ft
TransAlt. 18000 ft.

Airport Communications:
CASCADE APP/DEP:124.3
ATIS:127.25
CTAF:119.4
GND:121.8
MC MINNVILLE RDO:122.65
MEDFORD TWR:119.4
UNICOM:122.95

KMFR Zoom In..

If you have problems with the map follow the link
https://www.worldairports.se/pages/airport.php?
ICAO=KMFR

Runways:

(A) RW 14 length 8800 ft width 150 ft
ILS 110.30 / hdg 142

(B) RW 32 length 8800 ft width 150 ft
---- / hdg 322

Location; KMFR
Day. 18 / Time. 21.00 Zulu
* Altimeter: 30.16
* Temperature: 04° c. 39.2°f.
* Wind from: 010° Speed 04 kn.
Dewpoint: 03° c.
Visibility: 7 Statute Miles.
Clouds: Few 500 ft.
Clouds: Scattered 6000 ft.
Clouds: Overcast 7500 ft.
Conditions: Light Rain.

KMFR 182100Z 01004KT 7SM -RA FEW005 SCT060 OVC075 04/03 A3016 RMK AO2 P0000 T00440033


Wind From 010°
Speed 04 kn.

 
 
jpsmedia.com for Web Design worldairports.se 2019   terms of use